sensor_id;sensor_type;location;lat;lon;timestamp;pressure;altitude;pressure_sealevel;temperature;humidity
74905;BME280;63465;50.862;6.220;2023-02-01T00:01:06;100437.06;;;6.22;79.18
74905;BME280;63465;50.862;6.220;2023-02-01T00:03:33;100435.31;;;6.21;79.00
74905;BME280;63465;50.862;6.220;2023-02-01T00:06:00;100440.44;;;6.29;78.98
74905;BME280;63465;50.862;6.220;2023-02-01T00:08:27;100431.66;;;6.29;79.21
74905;BME280;63465;50.862;6.220;2023-02-01T00:11:01;100430.88;;;6.25;79.29
74905;BME280;63465;50.862;6.220;2023-02-01T00:13:29;100439.66;;;6.24;79.49
74905;BME280;63465;50.862;6.220;2023-02-01T00:16:02;100435.34;;;6.20;80.14
74905;BME280;63465;50.862;6.220;2023-02-01T00:18:31;100442.41;;;6.18;80.03
74905;BME280;63465;50.862;6.220;2023-02-01T00:20:58;100444.34;;;6.08;80.78
74905;BME280;63465;50.862;6.220;2023-02-01T00:23:24;100438.16;;;6.09;80.79
74905;BME280;63465;50.862;6.220;2023-02-01T00:25:51;100442.47;;;6.15;81.24
74905;BME280;63465;50.862;6.220;2023-02-01T00:28:18;100443.84;;;6.34;81.22
74905;BME280;63465;50.862;6.220;2023-02-01T00:30:44;100435.28;;;6.23;81.90
74905;BME280;63465;50.862;6.220;2023-02-01T00:33:11;100434.13;;;6.38;81.84
74905;BME280;63465;50.862;6.220;2023-02-01T00:35:39;100436.88;;;6.32;82.02
74905;BME280;63465;50.862;6.220;2023-02-01T00:38:06;100441.34;;;6.28;82.30
74905;BME280;63465;50.862;6.220;2023-02-01T00:40:33;100439.59;;;6.27;82.79
74905;BME280;63465;50.862;6.220;2023-02-01T00:42:59;100434.09;;;6.39;82.51
74905;BME280;63465;50.862;6.220;2023-02-01T00:45:26;100434.88;;;6.43;82.56
74905;BME280;63465;50.862;6.220;2023-02-01T00:47:53;100439.47;;;6.33;82.86
74905;BME280;63465;50.862;6.220;2023-02-01T00:50:19;100430.56;;;6.40;82.93
74905;BME280;63465;50.862;6.220;2023-02-01T00:52:47;100430.69;;;6.34;83.34
74905;BME280;63465;50.862;6.220;2023-02-01T00:55:14;100428.84;;;6.38;83.34
74905;BME280;63465;50.862;6.220;2023-02-01T00:57:41;100429.84;;;6.31;83.67
74905;BME280;63465;50.862;6.220;2023-02-01T01:00:09;100417.25;;;6.47;83.11
74905;BME280;63465;50.862;6.220;2023-02-01T01:02:35;100401.47;;;6.45;83.42
74905;BME280;63465;50.862;6.220;2023-02-01T01:05:03;100385.78;;;6.39;83.48
74905;BME280;63465;50.862;6.220;2023-02-01T01:07:29;100377.84;;;6.40;83.16
74905;BME280;63465;50.862;6.220;2023-02-01T01:09:57;100366.25;;;6.46;82.49
74905;BME280;63465;50.862;6.220;2023-02-01T01:12:24;100366.47;;;6.37;82.27
74905;BME280;63465;50.862;6.220;2023-02-01T01:14:51;100356.00;;;6.34;82.31
74905;BME280;63465;50.862;6.220;2023-02-01T01:17:18;100362.19;;;6.33;82.47
74905;BME280;63465;50.862;6.220;2023-02-01T01:19:45;100363.84;;;6.35;82.40
74905;BME280;63465;50.862;6.220;2023-02-01T01:22:11;100379.69;;;6.35;82.44
74905;BME280;63465;50.862;6.220;2023-02-01T01:24:38;100373.56;;;6.33;82.66
74905;BME280;63465;50.862;6.220;2023-02-01T01:27:07;100385.59;;;6.48;82.14
74905;BME280;63465;50.862;6.220;2023-02-01T01:29:33;100398.81;;;6.45;81.91
74905;BME280;63465;50.862;6.220;2023-02-01T01:32:00;100405.03;;;6.42;82.36
74905;BME280;63465;50.862;6.220;2023-02-01T01:34:27;100410.38;;;6.38;82.62
74905;BME280;63465;50.862;6.220;2023-02-01T01:36:54;100424.41;;;6.40;81.79
74905;BME280;63465;50.862;6.220;2023-02-01T01:39:20;100419.06;;;6.43;81.36
74905;BME280;63465;50.862;6.220;2023-02-01T01:41:47;100417.94;;;6.55;81.36
74905;BME280;63465;50.862;6.220;2023-02-01T01:44:58;100405.59;;;6.57;80.98
74905;BME280;63465;50.862;6.220;2023-02-01T01:47:29;100402.19;;;6.52;80.86
74905;BME280;63465;50.862;6.220;2023-02-01T01:49:57;100388.16;;;6.51;80.93
74905;BME280;63465;50.862;6.220;2023-02-01T01:52:24;100381.06;;;6.53;80.56
74905;BME280;63465;50.862;6.220;2023-02-01T01:54:52;100387.19;;;6.54;79.96
74905;BME280;63465;50.862;6.220;2023-02-01T01:57:23;100382.03;;;6.49;80.15
74905;BME280;63465;50.862;6.220;2023-02-01T01:59:55;100392.41;;;6.58;79.85
74905;BME280;63465;50.862;6.220;2023-02-01T02:02:26;100385.41;;;6.56;79.80
74905;BME280;63465;50.862;6.220;2023-02-01T02:04:52;100393.25;;;6.59;79.53
74905;BME280;63465;50.862;6.220;2023-02-01T02:07:21;100378.22;;;6.63;79.54
74905;BME280;63465;50.862;6.220;2023-02-01T02:09:50;100378.44;;;6.53;79.54
74905;BME280;63465;50.862;6.220;2023-02-01T02:12:17;100381.03;;;6.55;79.77
74905;BME280;63465;50.862;6.220;2023-02-01T02:14:44;100379.41;;;6.48;80.03
74905;BME280;63465;50.862;6.220;2023-02-01T02:17:21;100388.19;;;6.50;79.97
74905;BME280;63465;50.862;6.220;2023-02-01T02:20:26;100388.03;;;6.57;79.73
74905;BME280;63465;50.862;6.220;2023-02-01T02:23:31;100378.34;;;6.56;79.66
74905;BME280;63465;50.862;6.220;2023-02-01T02:26:44;100374.22;;;6.45;79.93
74905;BME280;63465;50.862;6.220;2023-02-01T02:29:42;100374.06;;;6.51;79.84
74905;BME280;63465;50.862;6.220;2023-02-01T02:32:33;100369.56;;;6.57;80.32
74905;BME280;63465;50.862;6.220;2023-02-01T02:35:10;100364.22;;;6.60;79.93
74905;BME280;63465;50.862;6.220;2023-02-01T02:37:46;100375.88;;;6.49;80.21
74905;BME280;63465;50.862;6.220;2023-02-01T02:40:20;100380.28;;;6.50;79.68
74905;BME280;63465;50.862;6.220;2023-02-01T02:42:57;100370.25;;;6.66;79.30
74905;BME280;63465;50.862;6.220;2023-02-01T02:45:47;100384.59;;;6.52;79.73
74905;BME280;63465;50.862;6.220;2023-02-01T02:48:46;100383.56;;;6.59;79.37
74905;BME280;63465;50.862;6.220;2023-02-01T02:51:21;100374.03;;;6.52;79.19
74905;BME280;63465;50.862;6.220;2023-02-01T02:54:13;100373.91;;;6.60;79.03
74905;BME280;63465;50.862;6.220;2023-02-01T02:57:00;100384.50;;;6.58;78.45
74905;BME280;63465;50.862;6.220;2023-02-01T02:59:47;100386.03;;;6.67;78.42
74905;BME280;63465;50.862;6.220;2023-02-01T03:02:33;100377.38;;;6.62;78.95
74905;BME280;63465;50.862;6.220;2023-02-01T03:05:18;100373.00;;;6.61;79.48
74905;BME280;63465;50.862;6.220;2023-02-01T03:07:55;100365.88;;;6.66;79.30
74905;BME280;63465;50.862;6.220;2023-02-01T03:10:28;100381.00;;;6.56;79.85
74905;BME280;63465;50.862;6.220;2023-02-01T03:13:01;100359.00;;;6.57;79.88
74905;BME280;63465;50.862;6.220;2023-02-01T03:15:34;100359.91;;;6.56;79.88
74905;BME280;63465;50.862;6.220;2023-02-01T03:18:03;100357.34;;;6.53;80.67
74905;BME280;63465;50.862;6.220;2023-02-01T03:20:33;100359.09;;;6.54;80.53
74905;BME280;63465;50.862;6.220;2023-02-01T03:23:04;100363.41;;;6.58;80.58
74905;BME280;63465;50.862;6.220;2023-02-01T03:25:33;100362.53;;;6.56;80.54
74905;BME280;63465;50.862;6.220;2023-02-01T03:28:04;100370.59;;;6.50;80.75
74905;BME280;63465;50.862;6.220;2023-02-01T03:30:34;100372.28;;;6.53;80.79
74905;BME280;63465;50.862;6.220;2023-02-01T03:33:07;100364.56;;;6.45;80.47
74905;BME280;63465;50.862;6.220;2023-02-01T03:35:43;100353.13;;;6.45;80.34
74905;BME280;63465;50.862;6.220;2023-02-01T03:38:18;100356.75;;;6.40;80.46
74905;BME280;63465;50.862;6.220;2023-02-01T03:40:51;100349.84;;;6.33;80.44
74905;BME280;63465;50.862;6.220;2023-02-01T03:43:21;100353.22;;;6.40;79.98
74905;BME280;63465;50.862;6.220;2023-02-01T03:45:52;100352.63;;;6.27;79.32
74905;BME280;63465;50.862;6.220;2023-02-01T03:48:22;100350.06;;;6.24;79.51
74905;BME280;63465;50.862;6.220;2023-02-01T03:50:52;100351.75;;;6.27;79.56
74905;BME280;63465;50.862;6.220;2023-02-01T03:53:23;100340.31;;;6.28;78.98
74905;BME280;63465;50.862;6.220;2023-02-01T03:55:53;100341.34;;;6.20;78.86
74905;BME280;63465;50.862;6.220;2023-02-01T03:58:22;100348.25;;;6.26;78.70
74905;BME280;63465;50.862;6.220;2023-02-01T04:00:51;100344.00;;;6.19;79.05
74905;BME280;63465;50.862;6.220;2023-02-01T04:03:18;100348.44;;;6.17;78.62
74905;BME280;63465;50.862;6.220;2023-02-01T04:05:45;100343.97;;;6.20;78.63
74905;BME280;63465;50.862;6.220;2023-02-01T04:08:12;100345.03;;;6.12;78.40
74905;BME280;63465;50.862;6.220;2023-02-01T04:10:40;100346.09;;;6.01;78.64
74905;BME280;63465;50.862;6.220;2023-02-01T04:13:08;100345.22;;;6.02;78.45
74905;BME280;63465;50.862;6.220;2023-02-01T04:15:35;100354.81;;;6.06;78.37
74905;BME280;63465;50.862;6.220;2023-02-01T04:18:02;100380.41;;;5.98;78.63
74905;BME280;63465;50.862;6.220;2023-02-01T04:20:28;100373.44;;;5.97;78.43
74905;BME280;63465;50.862;6.220;2023-02-01T04:22:55;100373.44;;;5.97;78.52
74905;BME280;63465;50.862;6.220;2023-02-01T04:25:22;100376.03;;;5.99;78.09
74905;BME280;63465;50.862;6.220;2023-02-01T04:27:50;100372.66;;;5.89;77.82
74905;BME280;63465;50.862;6.220;2023-02-01T04:30:17;100375.31;;;5.87;77.92
74905;BME280;63465;50.862;6.220;2023-02-01T04:32:44;100367.47;;;5.84;78.18
74905;BME280;63465;50.862;6.220;2023-02-01T04:35:10;100372.91;;;5.75;78.19
74905;BME280;63465;50.862;6.220;2023-02-01T04:37:37;100380.72;;;5.80;77.58
74905;BME280;63465;50.862;6.220;2023-02-01T04:40:05;100365.56;;;5.94;76.97
74905;BME280;63465;50.862;6.220;2023-02-01T04:42:32;100360.50;;;5.82;77.24
74905;BME280;63465;50.862;6.220;2023-02-01T04:45:00;100364.84;;;5.84;76.94
74905;BME280;63465;50.862;6.220;2023-02-01T04:47:27;100366.56;;;5.87;76.39
74905;BME280;63465;50.862;6.220;2023-02-01T04:49:53;100363.00;;;5.88;76.24
74905;BME280;63465;50.862;6.220;2023-02-01T04:52:20;100352.38;;;5.94;76.15
74905;BME280;63465;50.862;6.220;2023-02-01T04:54:47;100353.47;;;5.82;76.33
74905;BME280;63465;50.862;6.220;2023-02-01T04:57:13;100362.19;;;5.86;76.00
74905;BME280;63465;50.862;6.220;2023-02-01T04:59:40;100348.91;;;5.90;75.98
74905;BME280;63465;50.862;6.220;2023-02-01T05:02:08;100347.34;;;5.80;76.20
74905;BME280;63465;50.862;6.220;2023-02-01T05:04:35;100350.81;;;5.84;75.54
74905;BME280;63465;50.862;6.220;2023-02-01T05:07:01;100351.03;;;5.71;76.21
74905;BME280;63465;50.862;6.220;2023-02-01T05:09:28;100338.00;;;5.65;75.87
74905;BME280;63465;50.862;6.220;2023-02-01T05:11:55;100322.09;;;5.71;75.93
74905;BME280;63465;50.862;6.220;2023-02-01T05:14:39;100328.34;;;5.64;76.09
74905;BME280;63465;50.862;6.220;2023-02-01T05:17:07;100322.22;;;5.64;76.10
74905;BME280;63465;50.862;6.220;2023-02-01T05:19:34;100336.44;;;5.53;76.59
74905;BME280;63465;50.862;6.220;2023-02-01T05:22:00;100347.78;;;5.57;76.20
74905;BME280;63465;50.862;6.220;2023-02-01T05:24:27;100338.19;;;5.54;76.47
74905;BME280;63465;50.862;6.220;2023-02-01T05:26:54;100341.75;;;5.52;76.49
74905;BME280;63465;50.862;6.220;2023-02-01T05:29:21;100333.91;;;5.49;76.71
74905;BME280;63465;50.862;6.220;2023-02-01T05:31:47;100344.47;;;5.46;76.91
74905;BME280;63465;50.862;6.220;2023-02-01T05:34:15;100342.72;;;5.45;76.99
74905;BME280;63465;50.862;6.220;2023-02-01T05:36:42;100347.13;;;5.44;77.35
74905;BME280;63465;50.862;6.220;2023-02-01T05:39:09;100345.41;;;5.43;77.46
74905;BME280;63465;50.862;6.220;2023-02-01T05:41:36;100354.03;;;5.51;77.32
74905;BME280;63465;50.862;6.220;2023-02-01T05:44:03;100356.75;;;5.47;77.27
74905;BME280;63465;50.862;6.220;2023-02-01T05:46:33;100361.09;;;5.48;77.13
74905;BME280;63465;50.862;6.220;2023-02-01T05:48:59;100358.47;;;5.48;77.79
74905;BME280;63465;50.862;6.220;2023-02-01T05:51:28;100355.94;;;5.42;77.65
74905;BME280;63465;50.862;6.220;2023-02-01T05:53:54;100349.75;;;5.46;77.64
74905;BME280;63465;50.862;6.220;2023-02-01T05:56:21;100348.94;;;5.42;78.01
74905;BME280;63465;50.862;6.220;2023-02-01T05:58:48;100356.06;;;5.35;77.71
74905;BME280;63465;50.862;6.220;2023-02-01T06:01:14;100342.06;;;5.33;77.96
74905;BME280;63465;50.862;6.220;2023-02-01T06:03:41;100342.81;;;5.40;78.10
74905;BME280;63465;50.862;6.220;2023-02-01T06:06:08;100344.59;;;5.40;77.74
74905;BME280;63465;50.862;6.220;2023-02-01T06:08:36;100337.63;;;5.35;77.75
74905;BME280;63465;50.862;6.220;2023-02-01T06:11:06;100344.66;;;5.36;77.67
74905;BME280;63465;50.862;6.220;2023-02-01T06:13:33;100342.91;;;5.35;77.78
74905;BME280;63465;50.862;6.220;2023-02-01T06:16:00;100342.13;;;5.30;77.86
74905;BME280;63465;50.862;6.220;2023-02-01T06:18:27;100346.66;;;5.21;78.07
74905;BME280;63465;50.862;6.220;2023-02-01T06:20:56;100350.06;;;5.27;77.81
74905;BME280;63465;50.862;6.220;2023-02-01T06:23:25;100349.25;;;5.22;77.63
74905;BME280;63465;50.862;6.220;2023-02-01T06:25:58;100358.13;;;5.16;77.72
74905;BME280;63465;50.862;6.220;2023-02-01T06:28:25;100354.50;;;5.22;77.95
74905;BME280;63465;50.862;6.220;2023-02-01T06:30:51;100357.16;;;5.22;78.07
74905;BME280;63465;50.862;6.220;2023-02-01T06:33:18;100365.13;;;5.17;78.29
74905;BME280;63465;50.862;6.220;2023-02-01T06:35:45;100367.88;;;5.10;77.96
74905;BME280;63465;50.862;6.220;2023-02-01T06:38:12;100366.09;;;5.13;78.31
74905;BME280;63465;50.862;6.220;2023-02-01T06:40:40;100365.25;;;5.10;78.30
74905;BME280;63465;50.862;6.220;2023-02-01T06:43:08;100364.47;;;5.03;77.95
74905;BME280;63465;50.862;6.220;2023-02-01T06:45:35;100368.81;;;5.07;78.57
74905;BME280;63465;50.862;6.220;2023-02-01T06:48:02;100362.66;;;5.07;77.94
74905;BME280;63465;50.862;6.220;2023-02-01T06:50:29;100374.97;;;5.05;78.33
74905;BME280;63465;50.862;6.220;2023-02-01T06:52:55;100383.78;;;5.00;77.97
74905;BME280;63465;50.862;6.220;2023-02-01T06:55:22;100389.88;;;5.06;77.78
74905;BME280;63465;50.862;6.220;2023-02-01T06:57:53;100383.81;;;4.99;78.11
74905;BME280;63465;50.862;6.220;2023-02-01T07:00:21;100382.06;;;4.99;77.66
74905;BME280;63465;50.862;6.220;2023-02-01T07:02:49;100387.16;;;5.12;77.60
74905;BME280;63465;50.862;6.220;2023-02-01T07:05:16;100381.09;;;5.05;77.70
74905;BME280;63465;50.862;6.220;2023-02-01T07:07:43;100386.22;;;5.14;77.93
74905;BME280;63465;50.862;6.220;2023-02-01T07:10:10;100392.47;;;5.09;77.86
74905;BME280;63465;50.862;6.220;2023-02-01T07:12:37;100395.09;;;5.09;77.65
74905;BME280;63465;50.862;6.220;2023-02-01T07:15:05;100390.81;;;5.00;78.43
74905;BME280;63465;50.862;6.220;2023-02-01T07:17:33;100395.22;;;4.99;77.72
74905;BME280;63465;50.862;6.220;2023-02-01T07:20:00;100403.88;;;5.08;77.94
74905;BME280;63465;50.862;6.220;2023-02-01T07:22:27;100394.38;;;4.97;77.97
74905;BME280;63465;50.862;6.220;2023-02-01T07:24:54;100400.63;;;4.90;77.93
74905;BME280;63465;50.862;6.220;2023-02-01T07:27:21;100410.13;;;4.99;78.21
74905;BME280;63465;50.862;6.220;2023-02-01T07:29:50;100407.38;;;5.07;77.89
74905;BME280;63465;50.862;6.220;2023-02-01T07:32:16;100400.44;;;5.03;78.04
74905;BME280;63465;50.862;6.220;2023-02-01T07:34:45;100410.91;;;5.06;77.82
74905;BME280;63465;50.862;6.220;2023-02-01T07:37:11;100413.38;;;5.18;77.57
74905;BME280;63465;50.862;6.220;2023-02-01T07:39:38;100412.41;;;5.22;77.63
74905;BME280;63465;50.862;6.220;2023-02-01T07:42:05;100411.63;;;5.17;77.57
74905;BME280;63465;50.862;6.220;2023-02-01T07:44:32;100399.19;;;5.27;77.47
74905;BME280;63465;50.862;6.220;2023-02-01T07:46:59;100399.94;;;5.35;77.13
74905;BME280;63465;50.862;6.220;2023-02-01T07:49:25;100393.94;;;5.27;77.10
74905;BME280;63465;50.862;6.220;2023-02-01T07:51:53;100382.59;;;5.22;76.91
74905;BME280;63465;50.862;6.220;2023-02-01T07:54:20;100398.28;;;5.28;76.66
74905;BME280;63465;50.862;6.220;2023-02-01T07:56:47;100393.75;;;5.38;76.80
74905;BME280;63465;50.862;6.220;2023-02-01T07:59:13;100387.59;;;5.37;76.63
74905;BME280;63465;50.862;6.220;2023-02-01T08:01:41;100386.19;;;5.16;77.17
74905;BME280;63465;50.862;6.220;2023-02-01T08:04:10;100376.66;;;5.10;77.63
74905;BME280;63465;50.862;6.220;2023-02-01T08:06:37;100391.50;;;5.13;77.34
74905;BME280;63465;50.862;6.220;2023-02-01T08:09:06;100380.09;;;5.14;77.35
74905;BME280;63465;50.862;6.220;2023-02-01T08:11:34;100384.34;;;5.23;77.14
74905;BME280;63465;50.862;6.220;2023-02-01T08:14:02;100401.72;;;5.33;76.83
74905;BME280;63465;50.862;6.220;2023-02-01T08:16:28;100402.88;;;5.15;76.83
74905;BME280;63465;50.862;6.220;2023-02-01T08:18:55;100408.06;;;5.20;76.82
74905;BME280;63465;50.862;6.220;2023-02-01T08:21:24;100409.78;;;5.22;77.00
74905;BME280;63465;50.862;6.220;2023-02-01T08:23:51;100413.22;;;5.27;76.76
74905;BME280;63465;50.862;6.220;2023-02-01T08:26:21;100410.75;;;5.16;76.69
74905;BME280;63465;50.862;6.220;2023-02-01T08:28:50;100415.72;;;5.35;76.40
74905;BME280;63465;50.862;6.220;2023-02-01T08:31:20;100412.13;;;5.41;76.49
74905;BME280;63465;50.862;6.220;2023-02-01T08:33:49;100409.63;;;5.33;76.03
74905;BME280;63465;50.862;6.220;2023-02-01T08:36:16;100409.38;;;5.48;75.84
74905;BME280;63465;50.862;6.220;2023-02-01T08:38:43;100419.72;;;5.59;75.76
74905;BME280;63465;50.862;6.220;2023-02-01T08:41:12;100423.03;;;5.70;75.29
74905;BME280;63465;50.862;6.220;2023-02-01T08:43:41;100424.63;;;5.81;74.83
74905;BME280;63465;50.862;6.220;2023-02-01T08:46:09;100428.13;;;5.80;75.00
74905;BME280;63465;50.862;6.220;2023-02-01T08:48:36;100428.41;;;5.64;74.98
74905;BME280;63465;50.862;6.220;2023-02-01T08:51:05;100428.91;;;5.85;74.60
74905;BME280;63465;50.862;6.220;2023-02-01T08:53:32;100435.34;;;5.70;74.46
74905;BME280;63465;50.862;6.220;2023-02-01T08:55:59;100442.91;;;5.88;74.34
74905;BME280;63465;50.862;6.220;2023-02-01T08:58:26;100458.03;;;5.76;74.64
74905;BME280;63465;50.862;6.220;2023-02-01T09:00:54;100446.41;;;5.89;74.29
74905;BME280;63465;50.862;6.220;2023-02-01T09:03:20;100451.59;;;5.94;73.81
74905;BME280;63465;50.862;6.220;2023-02-01T09:05:47;100457.75;;;5.94;73.94
74905;BME280;63465;50.862;6.220;2023-02-01T09:08:14;100446.47;;;5.86;74.17
74905;BME280;63465;50.862;6.220;2023-02-01T09:10:41;100438.50;;;5.89;74.53
74905;BME280;63465;50.862;6.220;2023-02-01T09:13:08;100445.59;;;5.85;74.29
74905;BME280;63465;50.862;6.220;2023-02-01T09:15:35;100451.50;;;6.01;74.47
74905;BME280;63465;50.862;6.220;2023-02-01T09:18:04;100426.84;;;6.05;73.82
74905;BME280;63465;50.862;6.220;2023-02-01T09:20:31;100436.34;;;6.14;73.75
74905;BME280;63465;50.862;6.220;2023-02-01T09:22:57;100453.13;;;6.09;73.76
74905;BME280;63465;50.862;6.220;2023-02-01T09:25:25;100444.00;;;6.27;73.43
74905;BME280;63465;50.862;6.220;2023-02-01T09:27:52;100431.69;;;6.27;73.84
74905;BME280;63465;50.862;6.220;2023-02-01T09:30:19;100449.63;;;6.08;73.49
74905;BME280;63465;50.862;6.220;2023-02-01T09:32:45;100438.94;;;6.16;73.60
74905;BME280;63465;50.862;6.220;2023-02-01T09:35:13;100429.00;;;6.30;73.02
74905;BME280;63465;50.862;6.220;2023-02-01T09:37:40;100423.50;;;6.41;73.00
74905;BME280;63465;50.862;6.220;2023-02-01T09:40:12;100424.44;;;6.38;72.99
74905;BME280;63465;50.862;6.220;2023-02-01T09:43:01;100420.00;;;6.40;73.00
74905;BME280;63465;50.862;6.220;2023-02-01T09:45:38;100406.47;;;6.57;72.55
74905;BME280;63465;50.862;6.220;2023-02-01T09:48:13;100403.78;;;6.60;72.31
74905;BME280;63465;50.862;6.220;2023-02-01T09:50:45;100412.59;;;6.58;72.33
74905;BME280;63465;50.862;6.220;2023-02-01T09:53:19;100414.53;;;6.51;72.46
74905;BME280;63465;50.862;6.220;2023-02-01T09:55:49;100411.19;;;6.41;72.47
74905;BME280;63465;50.862;6.220;2023-02-01T09:58:20;100403.69;;;6.65;72.79
74905;BME280;63465;50.862;6.220;2023-02-01T10:00:52;100417.72;;;6.66;72.07
74905;BME280;63465;50.862;6.220;2023-02-01T10:03:20;100406.31;;;6.65;72.21
74905;BME280;63465;50.862;6.220;2023-02-01T10:06:24;100408.75;;;6.74;71.82
74905;BME280;63465;50.862;6.220;2023-02-01T10:14:57;100409.59;;;6.75;71.21
74905;BME280;63465;50.862;6.220;2023-02-01T10:17:36;100403.34;;;6.81;70.94
74905;BME280;63465;50.862;6.220;2023-02-01T10:20:15;100400.47;;;6.91;70.97
74905;BME280;63465;50.862;6.220;2023-02-01T10:22:52;100396.34;;;7.17;70.81
74905;BME280;63465;50.862;6.220;2023-02-01T10:25:26;100417.56;;;7.12;70.43
74905;BME280;63465;50.862;6.220;2023-02-01T10:27:53;100394.25;;;6.94;70.77
74905;BME280;63465;50.862;6.220;2023-02-01T10:30:22;100403.22;;;7.24;69.97
74905;BME280;63465;50.862;6.220;2023-02-01T10:32:54;100404.78;;;7.31;69.65
74905;BME280;63465;50.862;6.220;2023-02-01T10:35:26;100394.81;;;7.79;68.72
74905;BME280;63465;50.862;6.220;2023-02-01T10:37:58;100399.47;;;8.02;67.54
74905;BME280;63465;50.862;6.220;2023-02-01T10:40:27;100409.78;;;9.04;64.07
74905;BME280;63465;50.862;6.220;2023-02-01T10:42:56;100411.09;;;9.17;63.63
74905;BME280;63465;50.862;6.220;2023-02-01T10:45:26;100411.59;;;9.02;63.72
74905;BME280;63465;50.862;6.220;2023-02-01T10:47:56;100409.47;;;9.41;63.03
74905;BME280;63465;50.862;6.220;2023-02-01T10:50:33;100399.09;;;9.87;60.83
74905;BME280;63465;50.862;6.220;2023-02-01T10:53:05;100407.78;;;9.66;61.42
74905;BME280;63465;50.862;6.220;2023-02-01T10:55:39;100390.22;;;10.62;59.06
74905;BME280;63465;50.862;6.220;2023-02-01T10:58:13;100393.31;;;9.76;60.56
74905;BME280;63465;50.862;6.220;2023-02-01T11:00:46;100383.75;;;8.90;62.77
74905;BME280;63465;50.862;6.220;2023-02-01T11:03:33;100384.25;;;9.56;61.29
74905;BME280;63465;50.862;6.220;2023-02-01T11:06:01;100380.00;;;9.51;61.96
74905;BME280;63465;50.862;6.220;2023-02-01T11:08:30;100368.78;;;8.61;63.97
74905;BME280;63465;50.862;6.220;2023-02-01T11:10:59;100381.38;;;9.09;63.03
74905;BME280;63465;50.862;6.220;2023-02-01T11:13:29;100389.59;;;8.71;64.09
74905;BME280;63465;50.862;6.220;2023-02-01T11:15:57;100372.88;;;8.39;65.44
74905;BME280;63465;50.862;6.220;2023-02-01T11:18:27;100377.00;;;8.18;65.81
74905;BME280;63465;50.862;6.220;2023-02-01T11:20:53;100375.38;;;8.13;66.47
74905;BME280;63465;50.862;6.220;2023-02-01T11:23:23;100369.63;;;8.30;65.47
74905;BME280;63465;50.862;6.220;2023-02-01T11:25:53;100375.38;;;8.13;65.64
74905;BME280;63465;50.862;6.220;2023-02-01T11:28:23;100371.72;;;8.18;65.50
74905;BME280;63465;50.862;6.220;2023-02-01T11:30:53;100354.41;;;8.07;66.51
74905;BME280;63465;50.862;6.220;2023-02-01T11:33:24;100350.28;;;8.87;63.83
74905;BME280;63465;50.862;6.220;2023-02-01T11:35:55;100348.88;;;10.08;60.63
74905;BME280;63465;50.862;6.220;2023-02-01T11:38:27;100356.00;;;9.82;60.40
74905;BME280;63465;50.862;6.220;2023-02-01T11:41:11;100346.25;;;9.31;63.06
74905;BME280;63465;50.862;6.220;2023-02-01T11:43:53;100340.97;;;9.04;63.43
74905;BME280;63465;50.862;6.220;2023-02-01T11:46:24;100340.09;;;8.75;64.19
74905;BME280;63465;50.862;6.220;2023-02-01T11:48:54;100334.53;;;8.25;65.18
74905;BME280;63465;50.862;6.220;2023-02-01T11:51:37;100347.97;;;8.17;65.17
74905;BME280;63465;50.862;6.220;2023-02-01T11:54:18;100334.19;;;8.35;65.60
74905;BME280;63465;50.862;6.220;2023-02-01T11:57:01;100328.66;;;8.15;65.60
74905;BME280;63465;50.862;6.220;2023-02-01T11:59:47;100340.34;;;8.06;65.66
74905;BME280;63465;50.862;6.220;2023-02-01T12:02:35;100327.06;;;7.76;66.41
74905;BME280;63465;50.862;6.220;2023-02-01T12:05:26;100322.22;;;7.92;66.08
74905;BME280;63465;50.862;6.220;2023-02-01T12:08:09;100330.38;;;7.84;66.70
74905;BME280;63465;50.862;6.220;2023-02-01T12:10:49;100329.44;;;7.85;66.84
74905;BME280;63465;50.862;6.220;2023-02-01T12:13:34;100324.75;;;7.97;66.64
74905;BME280;63465;50.862;6.220;2023-02-01T12:16:16;100333.41;;;8.02;66.93
74905;BME280;63465;50.862;6.220;2023-02-01T12:19:00;100325.91;;;7.86;66.76
74905;BME280;63465;50.862;6.220;2023-02-01T12:21:42;100334.69;;;7.87;66.45
74905;BME280;63465;50.862;6.220;2023-02-01T12:24:30;100343.00;;;7.73;66.88
74905;BME280;63465;50.862;6.220;2023-02-01T12:27:06;100329.53;;;7.82;67.17
74905;BME280;63465;50.862;6.220;2023-02-01T12:29:51;100324.50;;;7.73;67.28
74905;BME280;63465;50.862;6.220;2023-02-01T12:32:32;100331.22;;;7.85;66.74
74905;BME280;63465;50.862;6.220;2023-02-01T12:35:20;100326.31;;;8.04;66.45
74905;BME280;63465;50.862;6.220;2023-02-01T12:38:17;100321.38;;;7.92;67.03
74905;BME280;63465;50.862;6.220;2023-02-01T12:40:59;100310.84;;;7.90;66.62
74905;BME280;63465;50.862;6.220;2023-02-01T12:43:37;100304.75;;;7.86;66.88
74905;BME280;63465;50.862;6.220;2023-02-01T12:46:10;100308.97;;;7.94;66.79
74905;BME280;63465;50.862;6.220;2023-02-01T12:48:41;100307.75;;;7.74;67.21
74905;BME280;63465;50.862;6.220;2023-02-01T12:51:15;100302.03;;;7.90;67.02
74905;BME280;63465;50.862;6.220;2023-02-01T12:53:46;100308.31;;;7.85;66.68
74905;BME280;63465;50.862;6.220;2023-02-01T12:56:20;100304.69;;;7.90;66.88
74905;BME280;63465;50.862;6.220;2023-02-01T12:58:50;100306.84;;;7.75;66.56
74905;BME280;63465;50.862;6.220;2023-02-01T13:01:26;100305.56;;;7.89;67.00
74905;BME280;63465;50.862;6.220;2023-02-01T13:04:00;100296.91;;;7.83;67.01
74905;BME280;63465;50.862;6.220;2023-02-01T13:06:35;100293.97;;;7.94;67.18
74905;BME280;63465;50.862;6.220;2023-02-01T13:09:09;100303.09;;;7.82;66.84
74905;BME280;63465;50.862;6.220;2023-02-01T13:11:44;100294.88;;;7.95;66.83
74905;BME280;63465;50.862;6.220;2023-02-01T13:14:21;100300.91;;;7.98;66.80
74905;BME280;63465;50.862;6.220;2023-02-01T13:16:56;100293.84;;;7.99;66.65
74905;BME280;63465;50.862;6.220;2023-02-01T13:19:28;100300.00;;;7.99;66.72
74905;BME280;63465;50.862;6.220;2023-02-01T13:21:58;100294.78;;;7.98;65.82
74905;BME280;63465;50.862;6.220;2023-02-01T13:24:32;100299.13;;;7.99;65.90
74905;BME280;63465;50.862;6.220;2023-02-01T13:27:00;100289.03;;;8.13;65.20